sensor_id;sensor_type;location;lat;lon;timestamp;pressure;altitude;pressure_sealevel;temperature;humidity
44351;BME280;62766;62.622;17.912;2023-04-27T00:02:21;99893.05;;;3.34;69.63
44351;BME280;62766;62.622;17.912;2023-04-27T00:04:49;99893.28;;;3.35;69.54
44351;BME280;62766;62.622;17.912;2023-04-27T00:07:17;99894.55;;;3.31;69.36
44351;BME280;62766;62.622;17.912;2023-04-27T00:09:46;99897.36;;;3.36;69.32
44351;BME280;62766;62.622;17.912;2023-04-27T00:12:14;99899.07;;;3.30;69.35
44351;BME280;62766;62.622;17.912;2023-04-27T00:14:43;99903.54;;;3.26;69.31
44351;BME280;62766;62.622;17.912;2023-04-27T00:17:11;99901.82;;;3.29;69.42
44351;BME280;62766;62.622;17.912;2023-04-27T00:19:39;99902.00;;;3.22;69.46
44351;BME280;62766;62.622;17.912;2023-04-27T00:22:08;99903.58;;;3.34;69.69
44351;BME280;62766;62.622;17.912;2023-04-27T00:24:36;99902.65;;;3.26;69.71
44351;BME280;62766;62.622;17.912;2023-04-27T00:27:05;99906.17;;;3.15;69.81
44351;BME280;62766;62.622;17.912;2023-04-27T00:29:33;99906.64;;;3.15;69.95
44351;BME280;62766;62.622;17.912;2023-04-27T00:32:02;99905.41;;;3.16;70.21
44351;BME280;62766;62.622;17.912;2023-04-27T00:34:30;99904.61;;;3.04;70.53
44351;BME280;62766;62.622;17.912;2023-04-27T00:36:58;99909.62;;;3.17;70.57
44351;BME280;62766;62.622;17.912;2023-04-27T00:39:28;99916.56;;;3.11;70.73
44351;BME280;62766;62.622;17.912;2023-04-27T00:41:57;99919.86;;;3.15;70.73
44351;BME280;62766;62.622;17.912;2023-04-27T00:44:28;99923.62;;;2.98;70.97
44351;BME280;62766;62.622;17.912;2023-04-27T00:46:58;99923.43;;;2.95;71.12
44351;BME280;62766;62.622;17.912;2023-04-27T00:49:27;99927.11;;;3.03;71.25
44351;BME280;62766;62.622;17.912;2023-04-27T00:51:56;99927.69;;;2.90;71.50
44351;BME280;62766;62.622;17.912;2023-04-27T00:54:25;99930.09;;;2.92;71.66
44351;BME280;62766;62.622;17.912;2023-04-27T00:56:53;99930.91;;;2.96;71.78
44351;BME280;62766;62.622;17.912;2023-04-27T00:59:21;99928.38;;;2.91;71.93
44351;BME280;62766;62.622;17.912;2023-04-27T01:01:50;99927.57;;;2.99;71.73
44351;BME280;62766;62.622;17.912;2023-04-27T01:04:18;99932.17;;;2.96;71.63
44351;BME280;62766;62.622;17.912;2023-04-27T01:06:47;99932.20;;;3.10;71.43
44351;BME280;62766;62.622;17.912;2023-04-27T01:09:15;99935.74;;;3.07;71.30
44351;BME280;62766;62.622;17.912;2023-04-27T01:11:43;99935.70;;;3.10;71.18
44351;BME280;62766;62.622;17.912;2023-04-27T01:14:12;99934.13;;;3.03;71.13
44351;BME280;62766;62.622;17.912;2023-04-27T01:16:40;99935.54;;;3.13;70.78
44351;BME280;62766;62.622;17.912;2023-04-27T01:19:09;99932.45;;;3.18;70.46
44351;BME280;62766;62.622;17.912;2023-04-27T01:21:37;99931.07;;;3.07;70.60
44351;BME280;62766;62.622;17.912;2023-04-27T01:24:06;99938.17;;;3.23;70.34
44351;BME280;62766;62.622;17.912;2023-04-27T01:26:35;99935.43;;;3.12;70.11
44351;BME280;62766;62.622;17.912;2023-04-27T01:29:04;99941.70;;;3.17;70.09
44351;BME280;62766;62.622;17.912;2023-04-27T01:31:32;99941.67;;;3.22;69.63
44351;BME280;62766;62.622;17.912;2023-04-27T01:34:01;99939.97;;;3.32;69.48
44351;BME280;62766;62.622;17.912;2023-04-27T01:36:29;99941.91;;;3.25;69.36
44351;BME280;62766;62.622;17.912;2023-04-27T01:38:58;99940.23;;;3.30;69.09
44351;BME280;62766;62.622;17.912;2023-04-27T01:41:27;99943.35;;;3.34;68.82
44351;BME280;62766;62.622;17.912;2023-04-27T01:43:56;99944.24;;;3.35;68.67
44351;BME280;62766;62.622;17.912;2023-04-27T01:46:25;99944.23;;;3.43;68.74
44351;BME280;62766;62.622;17.912;2023-04-27T01:48:53;99945.01;;;3.36;68.72
44351;BME280;62766;62.622;17.912;2023-04-27T01:51:21;99940.49;;;3.44;68.53
44351;BME280;62766;62.622;17.912;2023-04-27T01:53:50;99937.40;;;3.36;68.33
44351;BME280;62766;62.622;17.912;2023-04-27T01:56:18;99935.27;;;3.39;68.29
44351;BME280;62766;62.622;17.912;2023-04-27T01:58:46;99934.40;;;3.46;68.22
44351;BME280;62766;62.622;17.912;2023-04-27T02:01:15;99932.00;;;3.31;67.97
44351;BME280;62766;62.622;17.912;2023-04-27T02:03:43;99933.13;;;3.35;68.54
44351;BME280;62766;62.622;17.912;2023-04-27T02:06:12;99931.79;;;3.22;68.48
44351;BME280;62766;62.622;17.912;2023-04-27T02:08:40;99932.64;;;3.45;67.97
44351;BME280;62766;62.622;17.912;2023-04-27T02:11:08;99930.08;;;3.51;67.71
44351;BME280;62766;62.622;17.912;2023-04-27T02:13:37;99931.15;;;3.56;67.61
44351;BME280;62766;62.622;17.912;2023-04-27T02:16:06;99928.19;;;3.64;67.23
44351;BME280;62766;62.622;17.912;2023-04-27T02:18:34;99926.45;;;3.45;67.19
44351;BME280;62766;62.622;17.912;2023-04-27T02:21:07;99926.78;;;3.53;67.19
44351;BME280;62766;62.622;17.912;2023-04-27T02:23:36;99926.60;;;3.51;67.13
44351;BME280;62766;62.622;17.912;2023-04-27T02:26:04;99926.21;;;3.35;67.40
44351;BME280;62766;62.622;17.912;2023-04-27T02:28:32;99924.14;;;3.41;67.41
44351;BME280;62766;62.622;17.912;2023-04-27T02:31:01;99925.53;;;3.42;67.48
44351;BME280;62766;62.622;17.912;2023-04-27T02:33:29;99927.42;;;3.40;67.34
44351;BME280;62766;62.622;17.912;2023-04-27T02:35:58;99930.25;;;3.48;67.24
44351;BME280;62766;62.622;17.912;2023-04-27T02:38:28;99932.02;;;3.49;67.14
44351;BME280;62766;62.622;17.912;2023-04-27T02:40:56;99934.39;;;3.58;66.91
44351;BME280;62766;62.622;17.912;2023-04-27T02:43:25;99935.03;;;3.49;66.90
44351;BME280;62766;62.622;17.912;2023-04-27T02:45:53;99939.98;;;3.47;67.02
44351;BME280;62766;62.622;17.912;2023-04-27T02:48:21;99938.37;;;3.36;66.99
44351;BME280;62766;62.622;17.912;2023-04-27T02:50:50;99941.99;;;3.42;66.98
44351;BME280;62766;62.622;17.912;2023-04-27T02:53:18;99945.75;;;3.34;66.94
44351;BME280;62766;62.622;17.912;2023-04-27T02:55:47;99947.25;;;3.40;66.87
44351;BME280;62766;62.622;17.912;2023-04-27T02:58:15;99950.11;;;3.28;66.81
44351;BME280;62766;62.622;17.912;2023-04-27T03:00:43;99950.62;;;3.36;66.91
44351;BME280;62766;62.622;17.912;2023-04-27T03:03:12;99957.78;;;3.26;66.98
44351;BME280;62766;62.622;17.912;2023-04-27T03:05:40;99957.80;;;3.25;67.13
44351;BME280;62766;62.622;17.912;2023-04-27T03:08:08;99959.02;;;3.18;67.45
44351;BME280;62766;62.622;17.912;2023-04-27T03:10:37;99958.40;;;3.09;67.82
44351;BME280;62766;62.622;17.912;2023-04-27T03:13:05;99958.53;;;3.08;68.09
44351;BME280;62766;62.622;17.912;2023-04-27T03:15:34;99958.12;;;3.14;68.36
44351;BME280;62766;62.622;17.912;2023-04-27T03:18:03;99957.60;;;2.97;68.45
44351;BME280;62766;62.622;17.912;2023-04-27T03:20:31;99959.11;;;2.88;68.70
44351;BME280;62766;62.622;17.912;2023-04-27T03:22:59;99962.45;;;2.95;68.78
44351;BME280;62766;62.622;17.912;2023-04-27T03:25:28;99965.29;;;2.96;68.99
44351;BME280;62766;62.622;17.912;2023-04-27T03:27:56;99968.07;;;2.92;69.13
44351;BME280;62766;62.622;17.912;2023-04-27T03:30:24;99969.97;;;2.80;69.24
44351;BME280;62766;62.622;17.912;2023-04-27T03:32:53;99967.50;;;3.00;69.51
44351;BME280;62766;62.622;17.912;2023-04-27T03:35:21;99971.75;;;3.00;69.45
44351;BME280;62766;62.622;17.912;2023-04-27T03:37:49;99971.91;;;2.94;69.65
44351;BME280;62766;62.622;17.912;2023-04-27T03:40:18;99979.04;;;2.84;69.97
44351;BME280;62766;62.622;17.912;2023-04-27T03:42:47;99983.98;;;2.72;70.30
44351;BME280;62766;62.622;17.912;2023-04-27T03:45:16;99989.44;;;2.65;70.71
44351;BME280;62766;62.622;17.912;2023-04-27T03:47:44;99992.74;;;2.64;71.02
44351;BME280;62766;62.622;17.912;2023-04-27T03:50:13;99994.31;;;2.55;71.21
44351;BME280;62766;62.622;17.912;2023-04-27T03:52:41;99994.64;;;2.55;71.52
44351;BME280;62766;62.622;17.912;2023-04-27T03:55:10;99996.22;;;2.49;71.44
44351;BME280;62766;62.622;17.912;2023-04-27T03:57:38;100002.90;;;2.55;71.50
44351;BME280;62766;62.622;17.912;2023-04-27T04:03:27;100013.10;;;2.62;71.69
44351;BME280;62766;62.622;17.912;2023-04-27T04:05:55;100015.04;;;2.79;71.32
44351;BME280;62766;62.622;17.912;2023-04-27T04:08:24;100014.43;;;2.75;70.94
44351;BME280;62766;62.622;17.912;2023-04-27T04:10:52;100016.17;;;2.77;70.90
44351;BME280;62766;62.622;17.912;2023-04-27T04:13:21;100015.66;;;2.71;70.56
44351;BME280;62766;62.622;17.912;2023-04-27T04:15:49;100020.50;;;2.97;70.04
44351;BME280;62766;62.622;17.912;2023-04-27T04:18:17;100018.47;;;2.76;69.67
44351;BME280;62766;62.622;17.912;2023-04-27T04:20:46;100019.70;;;2.82;69.29
44351;BME280;62766;62.622;17.912;2023-04-27T04:23:14;100018.37;;;2.75;69.46
44351;BME280;62766;62.622;17.912;2023-04-27T04:25:44;100018.78;;;2.63;69.26
44351;BME280;62766;62.622;17.912;2023-04-27T04:28:13;100020.17;;;2.68;69.11
44351;BME280;62766;62.622;17.912;2023-04-27T04:30:41;100025.51;;;2.64;69.04
44351;BME280;62766;62.622;17.912;2023-04-27T04:33:10;100030.85;;;2.63;69.06
44351;BME280;62766;62.622;17.912;2023-04-27T04:35:39;100033.95;;;2.44;69.00
44351;BME280;62766;62.622;17.912;2023-04-27T04:38:07;100034.53;;;2.37;69.41
44351;BME280;62766;62.622;17.912;2023-04-27T04:40:37;100035.30;;;2.51;69.60
44351;BME280;62766;62.622;17.912;2023-04-27T04:43:05;100039.78;;;2.48;69.30
44351;BME280;62766;62.622;17.912;2023-04-27T04:45:34;100044.46;;;2.48;69.34
44351;BME280;62766;62.622;17.912;2023-04-27T04:48:02;100046.67;;;2.44;69.04
44351;BME280;62766;62.622;17.912;2023-04-27T04:50:31;100047.10;;;2.53;69.00
44351;BME280;62766;62.622;17.912;2023-04-27T04:52:59;100047.50;;;2.49;68.65
44351;BME280;62766;62.622;17.912;2023-04-27T04:55:27;100053.15;;;2.42;68.76
44351;BME280;62766;62.622;17.912;2023-04-27T04:57:56;100057.00;;;2.46;68.69
44351;BME280;62766;62.622;17.912;2023-04-27T05:00:24;100055.20;;;2.28;68.83
44351;BME280;62766;62.622;17.912;2023-04-27T05:02:53;100059.08;;;2.27;68.98
44351;BME280;62766;62.622;17.912;2023-04-27T05:05:22;100056.76;;;2.27;69.08
44351;BME280;62766;62.622;17.912;2023-04-27T05:07:51;100054.18;;;2.28;69.10
44351;BME280;62766;62.622;17.912;2023-04-27T05:10:21;100053.50;;;2.30;69.41
44351;BME280;62766;62.622;17.912;2023-04-27T05:12:50;100056.39;;;2.13;69.22
44351;BME280;62766;62.622;17.912;2023-04-27T05:15:19;100061.12;;;2.36;69.24
44351;BME280;62766;62.622;17.912;2023-04-27T05:17:47;100059.52;;;2.36;68.86
44351;BME280;62766;62.622;17.912;2023-04-27T05:20:15;100064.08;;;2.41;68.75
44351;BME280;62766;62.622;17.912;2023-04-27T05:22:44;100069.59;;;2.50;68.73
44351;BME280;62766;62.622;17.912;2023-04-27T05:25:12;100070.88;;;2.37;68.84
44351;BME280;62766;62.622;17.912;2023-04-27T05:27:41;100068.95;;;2.42;68.98
44351;BME280;62766;62.622;17.912;2023-04-27T05:30:10;100068.47;;;2.38;69.01
44351;BME280;62766;62.622;17.912;2023-04-27T05:32:39;100072.21;;;2.47;68.89
44351;BME280;62766;62.622;17.912;2023-04-27T05:35:08;100078.85;;;2.51;68.79
44351;BME280;62766;62.622;17.912;2023-04-27T05:37:36;100081.55;;;2.51;68.75
44351;BME280;62766;62.622;17.912;2023-04-27T05:40:06;100082.67;;;2.62;68.88
44351;BME280;62766;62.622;17.912;2023-04-27T05:42:35;100081.39;;;2.85;68.49
44351;BME280;62766;62.622;17.912;2023-04-27T05:45:04;100080.01;;;2.90;68.20
44351;BME280;62766;62.622;17.912;2023-04-27T05:47:34;100082.40;;;2.77;67.98
44351;BME280;62766;62.622;17.912;2023-04-27T05:50:02;100085.40;;;2.84;67.72
44351;BME280;62766;62.622;17.912;2023-04-27T05:52:30;100083.95;;;2.92;67.65
44351;BME280;62766;62.622;17.912;2023-04-27T05:54:59;100085.11;;;2.83;67.76
44351;BME280;62766;62.622;17.912;2023-04-27T05:57:27;100086.48;;;2.77;68.00
44351;BME280;62766;62.622;17.912;2023-04-27T05:59:55;100084.80;;;2.85;68.15
44351;BME280;62766;62.622;17.912;2023-04-27T06:02:24;100080.15;;;2.99;67.97
44351;BME280;62766;62.622;17.912;2023-04-27T06:04:52;100079.90;;;3.01;67.97
44351;BME280;62766;62.622;17.912;2023-04-27T06:07:22;100088.00;;;2.91;67.86
44351;BME280;62766;62.622;17.912;2023-04-27T06:09:51;100086.63;;;3.07;67.77
44351;BME280;62766;62.622;17.912;2023-04-27T06:12:20;100086.75;;;2.98;67.72
44351;BME280;62766;62.622;17.912;2023-04-27T06:14:49;100088.47;;;3.00;67.73
44351;BME280;62766;62.622;17.912;2023-04-27T06:17:20;100087.41;;;3.30;67.54
44351;BME280;62766;62.622;17.912;2023-04-27T06:19:50;100086.45;;;3.23;67.17
44351;BME280;62766;62.622;17.912;2023-04-27T06:22:18;100087.89;;;3.25;67.11
44351;BME280;62766;62.622;17.912;2023-04-27T06:24:47;100092.40;;;3.24;66.60
44351;BME280;62766;62.622;17.912;2023-04-27T06:27:15;100091.46;;;3.24;66.80
44351;BME280;62766;62.622;17.912;2023-04-27T06:29:44;100091.91;;;3.24;66.40
44351;BME280;62766;62.622;17.912;2023-04-27T06:32:12;100095.81;;;3.29;66.66
44351;BME280;62766;62.622;17.912;2023-04-27T06:34:40;100096.33;;;3.20;66.49
44351;BME280;62766;62.622;17.912;2023-04-27T06:37:09;100101.29;;;3.14;66.69
44351;BME280;62766;62.622;17.912;2023-04-27T06:39:37;100104.46;;;3.11;66.87
44351;BME280;62766;62.622;17.912;2023-04-27T06:42:06;100109.97;;;3.00;67.18
44351;BME280;62766;62.622;17.912;2023-04-27T06:44:34;100109.36;;;3.10;67.18
44351;BME280;62766;62.622;17.912;2023-04-27T06:47:03;100110.34;;;3.09;66.95
44351;BME280;62766;62.622;17.912;2023-04-27T06:49:31;100109.90;;;3.04;66.87
44351;BME280;62766;62.622;17.912;2023-04-27T06:52:01;100108.80;;;3.04;66.93
44351;BME280;62766;62.622;17.912;2023-04-27T06:54:29;100111.19;;;3.06;66.87
44351;BME280;62766;62.622;17.912;2023-04-27T06:56:58;100112.93;;;3.25;66.95
44351;BME280;62766;62.622;17.912;2023-04-27T06:59:26;100114.77;;;3.26;66.49
44351;BME280;62766;62.622;17.912;2023-04-27T07:01:55;100116.89;;;3.08;66.74
44351;BME280;62766;62.622;17.912;2023-04-27T07:04:23;100121.33;;;3.05;66.89
44351;BME280;62766;62.622;17.912;2023-04-27T07:06:52;100122.06;;;3.12;67.15
44351;BME280;62766;62.622;17.912;2023-04-27T07:09:21;100122.35;;;3.13;67.24
44351;BME280;62766;62.622;17.912;2023-04-27T07:11:50;100122.18;;;3.35;67.15
44351;BME280;62766;62.622;17.912;2023-04-27T07:14:19;100119.70;;;3.56;66.69
44351;BME280;62766;62.622;17.912;2023-04-27T07:16:47;100117.48;;;3.56;66.43
44351;BME280;62766;62.622;17.912;2023-04-27T07:19:15;100119.41;;;3.67;66.28
44351;BME280;62766;62.622;17.912;2023-04-27T07:21:44;100116.26;;;4.05;65.67
44351;BME280;62766;62.622;17.912;2023-04-27T07:24:12;100114.57;;;4.16;64.41
44351;BME280;62766;62.622;17.912;2023-04-27T07:26:41;100116.08;;;4.36;63.79
44351;BME280;62766;62.622;17.912;2023-04-27T07:29:09;100115.48;;;4.47;63.63
44351;BME280;62766;62.622;17.912;2023-04-27T07:31:37;100115.56;;;4.62;63.83
44351;BME280;62766;62.622;17.912;2023-04-27T07:34:06;100119.04;;;4.78;62.88
44351;BME280;62766;62.622;17.912;2023-04-27T07:36:34;100120.68;;;4.97;62.47
44351;BME280;62766;62.622;17.912;2023-04-27T07:39:03;100123.64;;;5.04;62.04
44351;BME280;62766;62.622;17.912;2023-04-27T07:41:31;100126.99;;;5.01;62.02
44351;BME280;62766;62.622;17.912;2023-04-27T07:43:59;100131.58;;;5.09;61.59
44351;BME280;62766;62.622;17.912;2023-04-27T07:46:28;100134.04;;;5.17;61.15
44351;BME280;62766;62.622;17.912;2023-04-27T07:48:56;100134.61;;;5.17;60.88
44351;BME280;62766;62.622;17.912;2023-04-27T07:51:25;100140.53;;;5.21;60.46
44351;BME280;62766;62.622;17.912;2023-04-27T07:53:53;100142.42;;;5.21;60.50
44351;BME280;62766;62.622;17.912;2023-04-27T07:56:22;100145.93;;;5.40;59.93
44351;BME280;62766;62.622;17.912;2023-04-27T07:58:51;100148.81;;;5.45;59.69
44351;BME280;62766;62.622;17.912;2023-04-27T08:01:21;100149.11;;;5.48;58.89
44351;BME280;62766;62.622;17.912;2023-04-27T08:03:50;100155.41;;;5.47;58.79
44351;BME280;62766;62.622;17.912;2023-04-27T08:06:18;100154.68;;;5.38;58.37
44351;BME280;62766;62.622;17.912;2023-04-27T08:08:47;100153.96;;;5.60;58.79
44351;BME280;62766;62.622;17.912;2023-04-27T08:11:15;100157.14;;;5.80;58.78
44351;BME280;62766;62.622;17.912;2023-04-27T08:13:44;100156.04;;;5.81;58.63
44351;BME280;62766;62.622;17.912;2023-04-27T08:16:12;100162.46;;;5.66;58.49
44351;BME280;62766;62.622;17.912;2023-04-27T08:18:40;100164.58;;;5.89;58.55
44351;BME280;62766;62.622;17.912;2023-04-27T08:21:09;100165.86;;;5.95;58.06
44351;BME280;62766;62.622;17.912;2023-04-27T08:23:37;100171.02;;;6.01;57.94
44351;BME280;62766;62.622;17.912;2023-04-27T08:26:05;100174.68;;;6.12;57.16
44351;BME280;62766;62.622;17.912;2023-04-27T08:28:34;100173.63;;;6.20;57.27
44351;BME280;62766;62.622;17.912;2023-04-27T08:31:02;100181.06;;;6.24;56.94
44351;BME280;62766;62.622;17.912;2023-04-27T08:33:30;100180.50;;;6.26;56.57
44351;BME280;62766;62.622;17.912;2023-04-27T08:35:59;100183.77;;;6.19;55.89
44351;BME280;62766;62.622;17.912;2023-04-27T08:38:27;100184.31;;;6.03;55.56
44351;BME280;62766;62.622;17.912;2023-04-27T08:40:56;100192.06;;;5.69;56.02
44351;BME280;62766;62.622;17.912;2023-04-27T08:43:24;100195.48;;;5.71;56.98
44351;BME280;62766;62.622;17.912;2023-04-27T08:45:52;100195.64;;;5.69;57.36
44351;BME280;62766;62.622;17.912;2023-04-27T08:48:22;100199.31;;;5.65;57.72
44351;BME280;62766;62.622;17.912;2023-04-27T08:50:51;100204.90;;;5.62;57.39
44351;BME280;62766;62.622;17.912;2023-04-27T08:53:22;100205.71;;;5.66;57.03
44351;BME280;62766;62.622;17.912;2023-04-27T08:55:51;100208.20;;;5.74;56.99
44351;BME280;62766;62.622;17.912;2023-04-27T08:58:20;100207.09;;;5.49;56.81
44351;BME280;62766;62.622;17.912;2023-04-27T09:00:48;100209.54;;;5.38;57.80
44351;BME280;62766;62.622;17.912;2023-04-27T09:03:20;100210.52;;;5.46;58.37
44351;BME280;62766;62.622;17.912;2023-04-27T09:05:50;100212.95;;;5.66;58.01
44351;BME280;62766;62.622;17.912;2023-04-27T09:08:18;100215.10;;;5.78;57.65
44351;BME280;62766;62.622;17.912;2023-04-27T09:10:48;100217.47;;;6.19;57.26
44351;BME280;62766;62.622;17.912;2023-04-27T09:13:17;100219.22;;;6.26;56.71
44351;BME280;62766;62.622;17.912;2023-04-27T09:15:47;100219.78;;;6.56;56.28
44351;BME280;62766;62.622;17.912;2023-04-27T09:18:16;100217.83;;;6.74;55.51
44351;BME280;62766;62.622;17.912;2023-04-27T09:20:47;100221.65;;;6.74;55.20
44351;BME280;62766;62.622;17.912;2023-04-27T09:23:32;100220.44;;;6.59;54.15
44351;BME280;62766;62.622;17.912;2023-04-27T09:26:03;100225.16;;;6.56;54.38
44351;BME280;62766;62.622;17.912;2023-04-27T09:28:36;100221.94;;;6.66;54.40
44351;BME280;62766;62.622;17.912;2023-04-27T09:31:05;100221.15;;;6.75;54.16
44351;BME280;62766;62.622;17.912;2023-04-27T09:33:34;100225.30;;;6.82;53.86
44351;BME280;62766;62.622;17.912;2023-04-27T09:36:05;100218.69;;;6.95;53.40
44351;BME280;62766;62.622;17.912;2023-04-27T09:38:33;100222.53;;;7.21;53.03
44351;BME280;62766;62.622;17.912;2023-04-27T09:41:02;100228.19;;;7.06;52.55
44351;BME280;62766;62.622;17.912;2023-04-27T09:43:30;100230.31;;;7.03;52.53
44351;BME280;62766;62.622;17.912;2023-04-27T09:45:58;100236.21;;;6.89;52.69
44351;BME280;62766;62.622;17.912;2023-04-27T09:48:27;100244.10;;;6.77;53.55
44351;BME280;62766;62.622;17.912;2023-04-27T09:50:55;100247.16;;;6.59;53.53
44351;BME280;62766;62.622;17.912;2023-04-27T09:53:27;100248.37;;;6.50;54.66
44351;BME280;62766;62.622;17.912;2023-04-27T09:56:09;100249.52;;;6.92;55.60
44351;BME280;62766;62.622;17.912;2023-04-27T09:58:55;100246.59;;;7.09;54.19
44351;BME280;62766;62.622;17.912;2023-04-27T10:03:28;100253.45;;;6.84;53.75
44351;BME280;62766;62.622;17.912;2023-04-27T10:06:41;100253.93;;;6.96;54.68
44351;BME280;62766;62.622;17.912;2023-04-27T10:09:14;100259.48;;;7.06;54.12
44351;BME280;62766;62.622;17.912;2023-04-27T10:11:43;100260.71;;;7.01;53.99
44351;BME280;62766;62.622;17.912;2023-04-27T10:14:17;100265.52;;;6.99;54.62
44351;BME280;62766;62.622;17.912;2023-04-27T10:16:49;100266.55;;;7.24;53.99
44351;BME280;62766;62.622;17.912;2023-04-27T10:19:19;100270.53;;;7.29;53.30
44351;BME280;62766;62.622;17.912;2023-04-27T10:21:53;100273.03;;;7.32;53.58
44351;BME280;62766;62.622;17.912;2023-04-27T10:24:38;100273.61;;;7.49;52.76
44351;BME280;62766;62.622;17.912;2023-04-27T10:27:09;100276.31;;;7.45;52.12
44351;BME280;62766;62.622;17.912;2023-04-27T10:29:39;100278.72;;;7.53;51.71
44351;BME280;62766;62.622;17.912;2023-04-27T10:32:09;100279.13;;;7.49;50.54
44351;BME280;62766;62.622;17.912;2023-04-27T10:34:38;100282.53;;;7.47;50.78
44351;BME280;62766;62.622;17.912;2023-04-27T10:37:09;100282.72;;;7.57;50.47
44351;BME280;62766;62.622;17.912;2023-04-27T10:39:39;100281.96;;;7.76;50.22
44351;BME280;62766;62.622;17.912;2023-04-27T10:42:08;100282.94;;;7.81;48.86
44351;BME280;62766;62.622;17.912;2023-04-27T10:44:37;100288.30;;;7.51;49.03
44351;BME280;62766;62.622;17.912;2023-04-27T10:47:15;100294.16;;;7.24;49.88
44351;BME280;62766;62.622;17.912;2023-04-27T10:49:45;100298.47;;;7.33;50.30
44351;BME280;62766;62.622;17.912;2023-04-27T10:52:14;100298.35;;;7.57;49.57
44351;BME280;62766;62.622;17.912;2023-04-27T10:54:45;100300.16;;;8.04;50.05
44351;BME280;62766;62.622;17.912;2023-04-27T10:57:14;100303.80;;;7.99;50.03
44351;BME280;62766;62.622;17.912;2023-04-27T10:59:51;100304.43;;;7.74;49.50
44351;BME280;62766;62.622;17.912;2023-04-27T11:02:25;100307.49;;;7.50;50.32
44351;BME280;62766;62.622;17.912;2023-04-27T11:04:55;100316.39;;;7.26;50.23
44351;BME280;62766;62.622;17.912;2023-04-27T11:07:24;100319.55;;;7.45;50.43
44351;BME280;62766;62.622;17.912;2023-04-27T11:09:52;100318.30;;;7.41;50.02
44351;BME280;62766;62.622;17.912;2023-04-27T11:12:20;100319.88;;;7.69;48.88
44351;BME280;62766;62.622;17.912;2023-04-27T11:14:49;100320.36;;;7.69;49.17
44351;BME280;62766;62.622;17.912;2023-04-27T11:17:27;100320.47;;;7.82;49.16
44351;BME280;62766;62.622;17.912;2023-04-27T11:19:56;100322.58;;;7.88;49.22
44351;BME280;62766;62.622;17.912;2023-04-27T11:22:24;100325.46;;;7.70;48.19
44351;BME280;62766;62.622;17.912;2023-04-27T11:24:53;100331.95;;;7.46;48.62
44351;BME280;62766;62.622;17.912;2023-04-27T11:27:21;100338.86;;;7.45;48.97
44351;BME280;62766;62.622;17.912;2023-04-27T11:29:49;100344.49;;;7.22;49.73
44351;BME280;62766;62.622;17.912;2023-04-27T11:32:19;100348.21;;;7.03;50.58
44351;BME280;62766;62.622;17.912;2023-04-27T11:34:48;100346.00;;;7.03;50.59
44351;BME280;62766;62.622;17.912;2023-04-27T11:37:22;100347.60;;;7.15;50.71
44351;BME280;62766;62.622;17.912;2023-04-27T11:39:53;100352.59;;;7.20;50.70
44351;BME280;62766;62.622;17.912;2023-04-27T11:42:23;100346.81;;;7.33;50.71
44351;BME280;62766;62.622;17.912;2023-04-27T11:44:53;100349.17;;;7.44;50.67
44351;BME280;62766;62.622;17.912;2023-04-27T11:47:23;100348.84;;;7.36;50.22
44351;BME280;62766;62.622;17.912;2023-04-27T11:49:54;100353.34;;;7.36;50.53
44351;BME280;62766;62.622;17.912;2023-04-27T11:52:27;100359.45;;;7.38;50.81
44351;BME280;62766;62.622;17.912;2023-04-27T11:54:56;100361.51;;;7.33;51.32
44351;BME280;62766;62.622;17.912;2023-04-27T11:57:24;100367.12;;;7.34;51.08
44351;BME280;62766;62.622;17.912;2023-04-27T11:59:53;100371.73;;;7.17;51.27
44351;BME280;62766;62.622;17.912;2023-04-27T12:02:21;100376.33;;;7.27;51.80
44351;BME280;62766;62.622;17.912;2023-04-27T12:04:49;100385.65;;;7.12;52.48
44351;BME280;62766;62.622;17.912;2023-04-27T12:07:19;100389.03;;;7.10;52.32
44351;BME280;62766;62.622;17.912;2023-04-27T12:09:47;100390.11;;;6.73;52.65
44351;BME280;62766;62.622;17.912;2023-04-27T12:12:16;100391.53;;;6.62;53.78
44351;BME280;62766;62.622;17.912;2023-04-27T12:14:46;100389.66;;;6.39;54.03
44351;BME280;62766;62.622;17.912;2023-04-27T12:17:14;100394.88;;;6.50;54.88
44351;BME280;62766;62.622;17.912;2023-04-27T12:19:42;100398.01;;;6.82;55.44
44351;BME280;62766;62.622;17.912;2023-04-27T12:22:11;100397.64;;;7.28;55.08
44351;BME280;62766;62.622;17.912;2023-04-27T12:24:39;100404.79;;;7.45;54.63
44351;BME280;62766;62.622;17.912;2023-04-27T12:27:08;100399.56;;;7.46;52.57
44351;BME280;62766;62.622;17.912;2023-04-27T12:29:36;100409.78;;;7.30;52.45
44351;BME280;62766;62.622;17.912;2023-04-27T12:32:04;100410.43;;;6.93;52.22
44351;BME280;62766;62.622;17.912;2023-04-27T12:34:33;100409.06;;;6.72;52.83
44351;BME280;62766;62.622;17.912;2023-04-27T12:37:03;100412.26;;;6.94;52.98
44351;BME280;62766;62.622;17.912;2023-04-27T12:39:31;100413.72;;;7.26;51.32
44351;BME280;62766;62.622;17.912;2023-04-27T12:42:04;100416.39;;;7.24;50.53
44351;BME280;62766;62.622;17.912;2023-04-27T12:44:33;100421.48;;;7.55;50.70
44351;BME280;62766;62.622;17.912;2023-04-27T12:47:01;100422.45;;;7.72;49.93
44351;BME280;62766;62.622;17.912;2023-04-27T12:49:30;100416.54;;;8.16;49.27
44351;BME280;62766;62.622;17.912;2023-04-27T12:51:58;100412.46;;;8.61;47.98
44351;BME280;62766;62.622;17.912;2023-04-27T12:54:26;100417.24;;;8.97;47.53
44351;BME280;62766;62.622;17.912;2023-04-27T12:56:55;100422.68;;;9.00;47.60
44351;BME280;62766;62.622;17.912;2023-04-27T12:59:23;100421.08;;;8.96;47.64
44351;BME280;62766;62.622;17.912;2023-04-27T13:01:51;100422.74;;;9.19;46.79
44351;BME280;62766;62.622;17.912;2023-04-27T13:04:20;100425.92;;;8.76;46.90
44351;BME280;62766;62.622;17.912;2023-04-27T13:06:48;100424.69;;;8.67;47.68
44351;BME280;62766;62.622;17.912;2023-04-27T13:09:17;100425.19;;;8.82;47.81